createdAt,value
2023-06-26T00:01:22.124Z,18.20
2023-06-26T00:04:25.005Z,18.34
2023-06-26T00:07:27.711Z,18.42
2023-06-26T00:10:30.563Z,18.43
2023-06-26T00:13:33.343Z,18.42
2023-06-26T00:16:36.138Z,18.40
2023-06-26T00:19:38.884Z,18.42
2023-06-26T00:22:42.360Z,18.38
2023-06-26T00:25:45.830Z,18.39
2023-06-26T00:28:48.546Z,18.37
2023-06-26T00:31:51.294Z,18.34
2023-06-26T00:34:54.533Z,18.25
2023-06-26T00:37:57.320Z,18.18
2023-06-26T00:41:00.148Z,18.12
2023-06-26T00:44:02.865Z,18.11
2023-06-26T00:47:06.193Z,18.05
2023-06-26T00:50:10.147Z,18.02
2023-06-26T00:53:13.303Z,17.98
2023-06-26T00:56:16.993Z,17.99
2023-06-26T00:59:19.817Z,17.93
2023-06-26T01:02:24.502Z,17.93
2023-06-26T01:05:29.319Z,17.88
2023-06-26T01:08:32.236Z,17.85
2023-06-26T01:11:34.937Z,17.66
2023-06-26T01:14:38.019Z,17.51
2023-06-26T01:17:41.708Z,17.53
2023-06-26T01:20:47.578Z,17.56
2023-06-26T01:24:10.652Z,17.51
2023-06-26T01:27:14.798Z,17.59
2023-06-26T01:30:19.291Z,17.59
2023-06-26T01:33:22.502Z,17.61
2023-06-26T01:36:28.564Z,17.59
2023-06-26T01:39:31.317Z,17.50
2023-06-26T01:42:35.143Z,17.39
2023-06-26T01:45:38.713Z,17.42
2023-06-26T01:49:01.835Z,17.40
2023-06-26T01:52:24.713Z,17.42
2023-06-26T01:55:50.643Z,17.39
2023-06-26T01:58:56.221Z,17.34
2023-06-26T02:01:59.068Z,17.30
2023-06-26T02:05:01.928Z,17.31
2023-06-26T02:08:05.152Z,17.33
2023-06-26T02:11:07.963Z,17.25
2023-06-26T02:14:12.203Z,17.28
2023-06-26T02:17:14.976Z,17.31
2023-06-26T02:20:17.830Z,17.30
2023-06-26T02:23:20.601Z,17.26
2023-06-26T02:26:23.601Z,17.15
2023-06-26T02:29:26.388Z,17.03
2023-06-26T02:32:29.137Z,17.05
2023-06-26T02:35:34.178Z,17.04
2023-06-26T02:38:37.521Z,17.09
2023-06-26T02:41:40.488Z,17.18
2023-06-26T02:44:43.722Z,17.05
2023-06-26T02:47:46.718Z,16.98
2023-06-26T02:50:49.568Z,17.08
2023-06-26T02:53:52.372Z,17.11
2023-06-26T02:56:55.233Z,17.13
2023-06-26T03:00:02.986Z,17.08
2023-06-26T03:03:06.976Z,17.08
2023-06-26T03:06:10.037Z,17.12
2023-06-26T03:09:12.882Z,17.15
2023-06-26T03:12:15.611Z,17.23
2023-06-26T03:15:20.523Z,17.28
2023-06-26T03:18:23.582Z,17.29
2023-06-26T03:21:26.326Z,17.38
2023-06-26T03:24:30.007Z,17.42
2023-06-26T03:27:33.926Z,17.46
2023-06-26T03:30:36.980Z,17.47
2023-06-26T03:33:39.973Z,17.40
2023-06-26T03:36:44.107Z,17.42
2023-06-26T03:39:47.153Z,17.45
2023-06-26T03:42:50.036Z,17.47
2023-06-26T03:45:53.487Z,17.62
2023-06-26T03:48:56.309Z,17.73
2023-06-26T03:51:59.056Z,17.82
2023-06-26T03:55:02.090Z,17.85
2023-06-26T03:58:05.339Z,17.88
2023-06-26T04:01:08.706Z,17.98
2023-06-26T04:04:11.486Z,17.96
2023-06-26T04:07:14.298Z,18.14
2023-06-26T04:10:17.091Z,18.23
2023-06-26T04:13:19.829Z,18.32
2023-06-26T04:16:26.416Z,18.35
2023-06-26T04:19:29.224Z,18.53
2023-06-26T04:22:31.967Z,18.68
2023-06-26T04:25:34.958Z,18.74
2023-06-26T04:28:37.877Z,18.84
2023-06-26T04:31:41.295Z,18.79
2023-06-26T04:34:47.625Z,18.95
2023-06-26T04:37:50.350Z,18.96
2023-06-26T04:40:53.053Z,19.01
2023-06-26T04:43:55.760Z,19.05
2023-06-26T04:46:58.555Z,19.09
2023-06-26T04:50:01.320Z,19.19
2023-06-26T04:53:04.164Z,19.26
2023-06-26T04:56:06.934Z,19.37
2023-06-26T04:59:14.186Z,19.59
2023-06-26T05:02:16.968Z,19.67
2023-06-26T05:05:19.728Z,19.60
2023-06-26T05:08:24.372Z,19.74
2023-06-26T05:11:27.261Z,19.84
2023-06-26T05:14:30.057Z,19.93
2023-06-26T05:17:32.793Z,19.83
2023-06-26T05:20:37.632Z,19.98
2023-06-26T05:23:40.876Z,20.11
2023-06-26T05:26:44.062Z,20.29
2023-06-26T05:29:47.061Z,20.50
2023-06-26T05:32:50.840Z,20.67
2023-06-26T05:35:54.751Z,20.81
2023-06-26T05:38:57.789Z,21.01
2023-06-26T05:42:00.903Z,21.19
2023-06-26T05:45:03.718Z,21.33
2023-06-26T05:48:06.769Z,21.52
2023-06-26T05:51:10.103Z,21.62
2023-06-26T05:54:14.455Z,21.71
2023-06-26T05:57:17.468Z,21.88
2023-06-26T06:00:20.617Z,21.90
2023-06-26T06:03:24.444Z,21.99
2023-06-26T06:06:27.436Z,22.13
2023-06-26T06:09:30.272Z,22.25
2023-06-26T06:12:33.182Z,22.36
2023-06-26T06:15:35.928Z,22.46
2023-06-26T06:18:38.646Z,22.65
2023-06-26T06:21:41.358Z,22.73
2023-06-26T06:24:45.123Z,22.96
2023-06-26T06:27:47.937Z,22.88
2023-06-26T06:30:50.965Z,22.93
2023-06-26T06:33:54.036Z,22.84
2023-06-26T06:36:56.765Z,23.04
2023-06-26T06:40:00.715Z,23.09
2023-06-26T06:43:03.526Z,23.22
2023-06-26T06:46:06.517Z,23.09
2023-06-26T06:49:10.506Z,23.37
2023-06-26T06:52:13.208Z,23.44
2023-06-26T06:55:16.017Z,23.85
2023-06-26T06:58:20.376Z,23.82
2023-06-26T07:01:23.133Z,24.08
2023-06-26T07:04:26.012Z,24.13
2023-06-26T07:07:32.080Z,24.20
2023-06-26T07:10:35.218Z,24.39
2023-06-26T07:13:38.638Z,24.49
2023-06-26T07:16:41.337Z,24.16
2023-06-26T07:19:44.112Z,24.29
2023-06-26T07:22:48.278Z,24.38
2023-06-26T07:25:51.027Z,24.51
2023-06-26T07:28:53.822Z,24.46
2023-06-26T07:31:56.832Z,24.40
2023-06-26T07:34:59.589Z,24.68
2023-06-26T07:38:02.351Z,24.75
2023-06-26T07:41:05.116Z,25.12
2023-06-26T07:44:07.846Z,25.05
2023-06-26T07:47:11.308Z,24.92
2023-06-26T07:50:17.037Z,24.78
2023-06-26T07:53:19.765Z,24.77
2023-06-26T07:56:22.570Z,24.77
2023-06-26T07:59:27.021Z,24.90
2023-06-26T08:02:30.212Z,25.24
2023-06-26T08:05:33.148Z,25.28
2023-06-26T08:08:36.034Z,25.23
2023-06-26T08:11:38.740Z,25.66
2023-06-26T08:14:41.506Z,25.22
2023-06-26T08:17:44.402Z,25.34
2023-06-26T08:20:47.205Z,25.38
2023-06-26T08:23:49.924Z,25.66
2023-06-26T08:26:52.684Z,25.95
2023-06-26T08:29:55.413Z,25.84
2023-06-26T08:32:58.325Z,25.98
2023-06-26T08:36:01.136Z,25.94
2023-06-26T08:39:06.248Z,25.88
2023-06-26T08:42:09.185Z,25.79
2023-06-26T08:45:13.225Z,25.99
2023-06-26T08:48:16.426Z,26.02
2023-06-26T08:51:24.474Z,25.88
2023-06-26T08:54:39.418Z,26.06
2023-06-26T08:57:42.921Z,26.17
2023-06-26T09:00:47.064Z,26.20
2023-06-26T09:03:50.025Z,26.41
2023-06-26T09:06:53.020Z,26.21
2023-06-26T09:09:55.830Z,26.10
2023-06-26T09:12:59.848Z,26.18
2023-06-26T09:16:10.423Z,26.70
2023-06-26T09:19:13.754Z,26.33
2023-06-26T09:22:16.836Z,26.38
2023-06-26T09:25:20.340Z,26.20
2023-06-26T09:28:23.708Z,26.23
2023-06-26T09:31:40.294Z,26.54
2023-06-26T09:34:47.725Z,26.67
2023-06-26T09:37:50.920Z,27.18
2023-06-26T09:40:53.774Z,27.34
2023-06-26T09:44:02.000Z,26.89
2023-06-26T09:47:05.419Z,26.89
2023-06-26T09:50:22.699Z,26.86
2023-06-26T09:53:26.902Z,26.59
2023-06-26T09:56:30.884Z,27.33
2023-06-26T09:59:34.616Z,26.61
2023-06-26T10:02:37.481Z,27.24
2023-06-26T10:05:41.571Z,27.00
2023-06-26T10:08:44.762Z,26.94
2023-06-26T10:12:13.528Z,27.06
2023-06-26T10:15:18.039Z,27.10
2023-06-26T10:18:24.407Z,27.36
2023-06-26T10:21:29.573Z,27.49
2023-06-26T10:24:37.193Z,27.81
2023-06-26T10:27:46.544Z,27.87
2023-06-26T10:30:52.331Z,27.42
2023-06-26T10:33:55.608Z,27.16
2023-06-26T10:37:03.035Z,27.52
2023-06-26T10:40:06.552Z,27.29
2023-06-26T10:43:10.529Z,27.37
2023-06-26T10:46:16.429Z,27.33
2023-06-26T10:49:19.658Z,27.34
2023-06-26T10:52:22.389Z,27.35
2023-06-26T10:55:29.421Z,28.04
2023-06-26T10:58:36.025Z,27.98
2023-06-26T11:01:43.604Z,27.67
2023-06-26T11:04:54.775Z,27.95
2023-06-26T11:08:09.283Z,27.40
2023-06-26T11:11:12.071Z,28.08
2023-06-26T11:14:15.076Z,27.64
2023-06-26T11:17:20.082Z,28.00
2023-06-26T11:20:23.049Z,27.90
2023-06-26T11:23:26.606Z,27.59
2023-06-26T11:26:29.359Z,27.96
2023-06-26T11:29:32.644Z,27.95
2023-06-26T11:32:36.079Z,28.33
2023-06-26T11:35:39.888Z,28.37
2023-06-26T11:38:42.625Z,28.86
2023-06-26T11:41:46.642Z,28.83
2023-06-26T11:44:49.462Z,28.26
2023-06-26T11:47:52.541Z,27.61
2023-06-26T11:50:55.846Z,27.43
2023-06-26T11:53:58.614Z,28.10
2023-06-26T11:57:02.348Z,28.20
2023-06-26T12:00:25.366Z,28.13
2023-06-26T12:03:28.467Z,27.48
2023-06-26T12:06:34.697Z,27.64
2023-06-26T12:09:43.368Z,28.04
2023-06-26T12:12:47.325Z,28.50
2023-06-26T12:15:51.621Z,28.95
2023-06-26T12:19:02.810Z,28.45
2023-06-26T12:22:08.826Z,28.99
2023-06-26T12:25:11.575Z,28.23
2023-06-26T12:28:18.859Z,28.16
2023-06-26T12:31:22.741Z,28.08
2023-06-26T12:34:34.622Z,28.24
2023-06-26T12:37:43.487Z,27.81
2023-06-26T12:40:47.344Z,27.89
2023-06-26T12:43:57.221Z,27.48
2023-06-26T12:47:02.117Z,27.63
2023-06-26T12:50:06.884Z,28.42
2023-06-26T12:53:09.643Z,28.48
2023-06-26T12:56:12.488Z,27.67
2023-06-26T12:59:15.194Z,28.00
2023-06-26T13:02:18.127Z,27.90
2023-06-26T13:05:21.013Z,28.01
2023-06-26T13:08:23.763Z,28.28
2023-06-26T13:11:27.063Z,28.09
2023-06-26T13:14:29.900Z,28.87
2023-06-26T13:17:32.664Z,29.09
2023-06-26T13:20:35.414Z,28.87
2023-06-26T13:23:38.178Z,28.87
2023-06-26T13:26:41.064Z,29.80
2023-06-26T13:29:43.789Z,30.21
2023-06-26T13:32:47.369Z,30.40
2023-06-26T13:35:50.168Z,31.82
2023-06-26T13:38:57.039Z,29.56
2023-06-26T13:42:00.105Z,29.25
2023-06-26T13:45:08.156Z,28.71
2023-06-26T13:48:18.956Z,27.87
2023-06-26T13:51:21.807Z,29.06
2023-06-26T13:54:24.605Z,29.50
2023-06-26T13:57:29.707Z,29.94
2023-06-26T14:00:34.638Z,29.64
2023-06-26T14:03:37.466Z,29.51
2023-06-26T14:06:40.293Z,29.84
2023-06-26T14:09:42.985Z,30.35
2023-06-26T14:12:45.765Z,30.80
2023-06-26T14:15:48.547Z,30.52
2023-06-26T14:18:51.232Z,30.03
2023-06-26T14:21:53.989Z,28.70
2023-06-26T14:24:56.718Z,27.97
2023-06-26T14:28:00.158Z,27.94
2023-06-26T14:31:03.022Z,29.18
2023-06-26T14:34:05.920Z,30.67
2023-06-26T14:37:08.742Z,30.77
2023-06-26T14:40:12.283Z,29.90
2023-06-26T14:43:15.597Z,29.49
2023-06-26T14:46:19.659Z,29.90
2023-06-26T14:49:22.748Z,29.84
2023-06-26T14:52:25.437Z,30.44
2023-06-26T14:55:28.226Z,31.07
2023-06-26T14:58:30.931Z,29.91
2023-06-26T15:01:33.805Z,29.89
2023-06-26T15:04:36.605Z,30.24
2023-06-26T15:07:39.470Z,30.33
2023-06-26T15:10:42.607Z,30.57
2023-06-26T15:13:47.140Z,30.06
2023-06-26T15:16:49.999Z,29.27
2023-06-26T15:19:52.737Z,28.65
2023-06-26T15:22:55.500Z,30.01
2023-06-26T15:25:58.280Z,29.15
2023-06-26T15:29:00.986Z,30.39
2023-06-26T15:32:03.837Z,30.27
2023-06-26T15:35:07.207Z,30.09
2023-06-26T15:38:09.990Z,29.81
2023-06-26T15:41:14.318Z,29.90
2023-06-26T15:44:17.093Z,30.14
2023-06-26T15:47:19.834Z,29.73
2023-06-26T15:50:23.046Z,29.69
2023-06-26T15:53:39.153Z,30.05
2023-06-26T15:56:41.982Z,29.71
2023-06-26T15:59:44.671Z,29.61
2023-06-26T16:02:47.489Z,29.59
2023-06-26T16:05:50.741Z,29.28
2023-06-26T16:08:54.116Z,29.29
2023-06-26T16:11:56.960Z,29.66
2023-06-26T16:14:59.917Z,30.14
2023-06-26T16:18:03.491Z,30.01
2023-06-26T16:21:06.490Z,30.44
2023-06-26T16:24:09.494Z,30.24
2023-06-26T16:27:14.356Z,29.91
2023-06-26T16:30:17.777Z,29.81
2023-06-26T16:33:20.787Z,29.69
2023-06-26T16:36:23.524Z,29.29
2023-06-26T16:39:26.257Z,29.52
2023-06-26T16:42:28.969Z,29.59
2023-06-26T16:45:31.840Z,29.89
2023-06-26T16:48:34.631Z,29.42
2023-06-26T16:51:37.384Z,29.18
2023-06-26T16:54:40.224Z,29.48
2023-06-26T16:57:44.345Z,28.94
2023-06-26T17:00:47.615Z,29.25
2023-06-26T17:03:50.381Z,29.33
2023-06-26T17:06:53.157Z,29.00
2023-06-26T17:09:56.527Z,28.60
2023-06-26T17:12:59.250Z,28.61
2023-06-26T17:16:02.253Z,27.88
2023-06-26T17:19:06.874Z,27.71
2023-06-26T17:22:09.789Z,27.51
2023-06-26T17:25:12.932Z,27.56
2023-06-26T17:28:15.706Z,27.57
2023-06-26T17:31:18.578Z,27.46
2023-06-26T17:34:21.298Z,26.98
2023-06-26T17:37:24.414Z,27.09
2023-06-26T17:40:27.368Z,26.95
2023-06-26T17:43:30.286Z,26.57
2023-06-26T17:46:33.055Z,26.43
2023-06-26T17:49:35.811Z,26.48
2023-06-26T17:52:38.554Z,26.63
2023-06-26T17:55:41.403Z,26.30
2023-06-26T17:58:44.143Z,26.25
2023-06-26T18:01:47.162Z,25.98
2023-06-26T18:04:50.109Z,25.70
2023-06-26T18:08:04.057Z,25.38
2023-06-26T18:11:07.443Z,25.22
2023-06-26T18:14:10.413Z,25.02
2023-06-26T18:17:15.322Z,24.96
2023-06-26T18:20:18.133Z,24.91
2023-06-26T18:23:20.929Z,24.73
2023-06-26T18:26:23.869Z,24.69
2023-06-26T18:29:26.835Z,24.60
2023-06-26T18:32:29.602Z,24.41
2023-06-26T18:35:32.417Z,24.34
2023-06-26T18:38:35.195Z,24.18
2023-06-26T18:41:37.919Z,24.13
2023-06-26T18:44:40.898Z,23.94
2023-06-26T18:47:44.489Z,23.96
2023-06-26T18:50:47.380Z,23.92
2023-06-26T18:53:50.113Z,23.88
2023-06-26T18:56:52.891Z,23.69
2023-06-26T18:59:55.660Z,23.65
2023-06-26T19:02:59.064Z,23.69
2023-06-26T19:06:01.927Z,23.64
2023-06-26T19:09:04.980Z,23.50
2023-06-26T19:12:08.373Z,23.37
2023-06-26T19:15:11.985Z,23.21
2023-06-26T19:18:14.901Z,23.10
2023-06-26T19:21:17.912Z,23.16
2023-06-26T19:24:20.824Z,22.98
2023-06-26T19:27:23.644Z,22.96
2023-06-26T19:30:26.449Z,22.97
2023-06-26T19:33:29.421Z,22.76
2023-06-26T19:36:32.179Z,22.66
2023-06-26T19:39:35.030Z,22.62
2023-06-26T19:42:37.983Z,22.58
2023-06-26T19:45:41.236Z,22.48
2023-06-26T19:48:45.070Z,22.26
2023-06-26T19:51:48.788Z,22.12
2023-06-26T19:54:51.686Z,21.94
2023-06-26T19:57:54.736Z,22.00
2023-06-26T20:00:57.422Z,21.71
2023-06-26T20:04:05.943Z,21.58
2023-06-26T20:07:09.213Z,21.59
2023-06-26T20:10:12.304Z,21.39
2023-06-26T20:13:16.575Z,21.19
2023-06-26T20:16:19.359Z,21.02
2023-06-26T20:19:22.735Z,20.44
2023-06-26T20:22:25.540Z,20.70
2023-06-26T20:25:29.307Z,20.81
2023-06-26T20:28:31.991Z,20.95
2023-06-26T20:31:34.792Z,20.93
2023-06-26T20:34:37.771Z,20.96
2023-06-26T20:37:40.551Z,21.00
2023-06-26T20:40:43.925Z,20.95
2023-06-26T20:43:46.941Z,20.95
2023-06-26T20:46:57.167Z,20.85
2023-06-26T20:50:01.665Z,20.81
2023-06-26T20:53:04.721Z,20.71
2023-06-26T20:56:07.920Z,20.68
2023-06-26T20:59:10.694Z,20.58
2023-06-26T21:02:13.434Z,20.49
2023-06-26T21:05:16.274Z,20.53
2023-06-26T21:08:19.040Z,20.47
2023-06-26T21:11:21.827Z,20.33
2023-06-26T21:14:24.579Z,20.27
2023-06-26T21:17:27.373Z,20.25
2023-06-26T21:20:30.380Z,20.24
2023-06-26T21:23:33.182Z,20.20
2023-06-26T21:26:36.040Z,20.03
2023-06-26T21:29:38.765Z,19.97
2023-06-26T21:32:41.729Z,19.79
2023-06-26T21:35:44.909Z,19.84
2023-06-26T21:38:48.006Z,19.85
2023-06-26T21:41:51.326Z,19.84
2023-06-26T21:44:54.081Z,19.82
2023-06-26T21:47:56.843Z,19.74
2023-06-26T21:50:59.573Z,19.71
2023-06-26T21:54:03.236Z,19.65
2023-06-26T21:57:06.307Z,19.72
2023-06-26T22:00:13.913Z,19.62
2023-06-26T22:03:16.880Z,19.70
2023-06-26T22:06:19.650Z,19.68
2023-06-26T22:09:22.394Z,19.68
2023-06-26T22:12:25.125Z,19.61
2023-06-26T22:15:28.648Z,19.52
2023-06-26T22:18:31.348Z,19.46
2023-06-26T22:21:35.092Z,19.34
2023-06-26T22:24:37.960Z,19.27
2023-06-26T22:27:46.326Z,19.21
2023-06-26T22:30:49.122Z,19.14
2023-06-26T22:33:51.969Z,19.12
2023-06-26T22:36:54.675Z,19.04
2023-06-26T22:39:57.394Z,19.05
2023-06-26T22:43:00.133Z,18.97
2023-06-26T22:46:02.829Z,18.99
2023-06-26T22:49:05.602Z,19.00
2023-06-26T22:52:08.538Z,19.05
2023-06-26T22:55:11.742Z,18.96
2023-06-26T22:58:14.540Z,18.94
2023-06-26T23:01:18.659Z,18.90
2023-06-26T23:04:21.879Z,18.78
2023-06-26T23:07:24.875Z,18.82
2023-06-26T23:10:27.661Z,18.83
2023-06-26T23:13:30.427Z,18.83
2023-06-26T23:16:35.993Z,18.85
2023-06-26T23:19:41.890Z,18.83
2023-06-26T23:22:44.932Z,18.83
2023-06-26T23:25:47.726Z,18.65
2023-06-26T23:28:50.674Z,18.70
2023-06-26T23:31:53.495Z,18.69
2023-06-26T23:34:57.245Z,18.55
2023-06-26T23:38:02.409Z,18.44
2023-06-26T23:41:05.683Z,18.42
2023-06-26T23:44:08.440Z,18.37
2023-06-26T23:47:11.182Z,18.35
2023-06-26T23:50:14.428Z,18.28
2023-06-26T23:53:17.239Z,18.31
2023-06-26T23:56:19.933Z,18.29
2023-06-26T23:59:22.742Z,18.27
